sensor_id;sensor_type;location;lat;lon;timestamp;pressure;altitude;pressure_sealevel;temperature;humidity
25944;BME280;13742;49.306;8.636;2024-03-06T00:00:35;100633.66;;;7.29;96.49
25944;BME280;13742;49.306;8.636;2024-03-06T00:01:35;100631.92;;;7.29;96.64
25944;BME280;13742;49.306;8.636;2024-03-06T00:02:36;100630.38;;;7.29;96.76
25944;BME280;13742;49.306;8.636;2024-03-06T00:03:35;100629.41;;;7.28;96.75
25944;BME280;13742;49.306;8.636;2024-03-06T00:04:35;100631.66;;;7.28;96.97
25944;BME280;13742;49.306;8.636;2024-03-06T00:05:35;100629.31;;;7.27;97.01
25944;BME280;13742;49.306;8.636;2024-03-06T00:06:36;100633.27;;;7.26;97.01
25944;BME280;13742;49.306;8.636;2024-03-06T00:07:35;100634.98;;;7.25;97.04
25944;BME280;13742;49.306;8.636;2024-03-06T00:08:37;100633.70;;;7.24;97.10
25944;BME280;13742;49.306;8.636;2024-03-06T00:09:36;100636.27;;;7.23;97.26
25944;BME280;13742;49.306;8.636;2024-03-06T00:10:36;100637.21;;;7.22;97.16
25944;BME280;13742;49.306;8.636;2024-03-06T00:11:38;100640.49;;;7.22;97.15
25944;BME280;13742;49.306;8.636;2024-03-06T00:12:35;100642.92;;;7.22;97.20
25944;BME280;13742;49.306;8.636;2024-03-06T00:13:35;100647.69;;;7.22;97.06
25944;BME280;13742;49.306;8.636;2024-03-06T00:14:36;100647.55;;;7.21;97.03
25944;BME280;13742;49.306;8.636;2024-03-06T00:15:35;100644.42;;;7.21;97.10
25944;BME280;13742;49.306;8.636;2024-03-06T00:16:35;100647.80;;;7.22;97.49
25944;BME280;13742;49.306;8.636;2024-03-06T00:17:35;100649.69;;;7.22;97.65
25944;BME280;13742;49.306;8.636;2024-03-06T00:18:35;100647.48;;;7.22;97.72
25944;BME280;13742;49.306;8.636;2024-03-06T00:19:35;100651.34;;;7.23;97.77
25944;BME280;13742;49.306;8.636;2024-03-06T00:20:35;100650.59;;;7.22;97.67
25944;BME280;13742;49.306;8.636;2024-03-06T00:21:36;100650.99;;;7.21;97.78
25944;BME280;13742;49.306;8.636;2024-03-06T00:22:35;100650.71;;;7.21;97.87
25944;BME280;13742;49.306;8.636;2024-03-06T00:23:37;100649.99;;;7.20;97.94
25944;BME280;13742;49.306;8.636;2024-03-06T00:24:35;100650.29;;;7.20;98.02
25944;BME280;13742;49.306;8.636;2024-03-06T00:25:36;100649.80;;;7.20;98.03
25944;BME280;13742;49.306;8.636;2024-03-06T00:26:35;100653.91;;;7.20;98.30
25944;BME280;13742;49.306;8.636;2024-03-06T00:27:35;100651.70;;;7.19;98.19
25944;BME280;13742;49.306;8.636;2024-03-06T00:28:35;100654.51;;;7.18;98.25
25944;BME280;13742;49.306;8.636;2024-03-06T00:29:37;100660.00;;;7.19;98.37
25944;BME280;13742;49.306;8.636;2024-03-06T00:30:35;100660.88;;;7.18;98.42
25944;BME280;13742;49.306;8.636;2024-03-06T00:31:35;100660.21;;;7.19;98.36
25944;BME280;13742;49.306;8.636;2024-03-06T00:32:35;100661.48;;;7.18;98.45
25944;BME280;13742;49.306;8.636;2024-03-06T00:33:35;100667.62;;;7.18;98.51
25944;BME280;13742;49.306;8.636;2024-03-06T00:34:35;100667.52;;;7.17;98.45
25944;BME280;13742;49.306;8.636;2024-03-06T00:35:35;100668.67;;;7.16;98.17
25944;BME280;13742;49.306;8.636;2024-03-06T00:36:35;100668.94;;;7.17;98.40
25944;BME280;13742;49.306;8.636;2024-03-06T00:37:35;100668.61;;;7.17;98.55
25944;BME280;13742;49.306;8.636;2024-03-06T00:38:35;100671.40;;;7.17;98.83
25944;BME280;13742;49.306;8.636;2024-03-06T00:39:35;100667.31;;;7.16;98.71
25944;BME280;13742;49.306;8.636;2024-03-06T00:40:35;100673.61;;;7.16;98.72
25944;BME280;13742;49.306;8.636;2024-03-06T00:41:35;100676.65;;;7.17;98.76
25944;BME280;13742;49.306;8.636;2024-03-06T00:42:35;100669.80;;;7.15;98.84
25944;BME280;13742;49.306;8.636;2024-03-06T00:43:35;100669.40;;;7.15;99.00
25944;BME280;13742;49.306;8.636;2024-03-06T00:44:35;100669.53;;;7.14;98.83
25944;BME280;13742;49.306;8.636;2024-03-06T00:45:35;100671.44;;;7.14;98.81
25944;BME280;13742;49.306;8.636;2024-03-06T00:46:35;100671.19;;;7.12;98.83
25944;BME280;13742;49.306;8.636;2024-03-06T00:47:35;100670.34;;;7.10;98.92
25944;BME280;13742;49.306;8.636;2024-03-06T00:48:35;100672.84;;;7.08;99.14
25944;BME280;13742;49.306;8.636;2024-03-06T00:49:35;100671.59;;;7.06;99.24
25944;BME280;13742;49.306;8.636;2024-03-06T00:50:35;100669.31;;;7.05;99.33
25944;BME280;13742;49.306;8.636;2024-03-06T00:51:37;100671.98;;;7.05;99.30
25944;BME280;13742;49.306;8.636;2024-03-06T00:52:35;100667.20;;;7.03;99.32
25944;BME280;13742;49.306;8.636;2024-03-06T00:53:35;100669.47;;;7.02;99.31
25944;BME280;13742;49.306;8.636;2024-03-06T00:54:35;100667.78;;;7.01;99.29
25944;BME280;13742;49.306;8.636;2024-03-06T00:55:35;100673.03;;;7.01;99.22
25944;BME280;13742;49.306;8.636;2024-03-06T00:56:38;100671.03;;;7.01;99.18
25944;BME280;13742;49.306;8.636;2024-03-06T00:57:35;100670.47;;;7.00;99.31
25944;BME280;13742;49.306;8.636;2024-03-06T00:58:35;100668.96;;;7.00;99.36
25944;BME280;13742;49.306;8.636;2024-03-06T00:59:35;100668.38;;;6.99;99.34
25944;BME280;13742;49.306;8.636;2024-03-06T01:00:35;100666.47;;;6.98;99.14
25944;BME280;13742;49.306;8.636;2024-03-06T01:01:35;100668.36;;;6.96;99.09
25944;BME280;13742;49.306;8.636;2024-03-06T01:02:36;100665.81;;;6.93;99.07
25944;BME280;13742;49.306;8.636;2024-03-06T01:03:37;100665.84;;;6.90;99.25
25944;BME280;13742;49.306;8.636;2024-03-06T01:04:35;100661.82;;;6.89;99.36
25944;BME280;13742;49.306;8.636;2024-03-06T01:05:35;100665.02;;;6.87;99.29
25944;BME280;13742;49.306;8.636;2024-03-06T01:06:35;100662.67;;;6.87;99.30
25944;BME280;13742;49.306;8.636;2024-03-06T01:07:38;100662.06;;;6.87;99.29
25944;BME280;13742;49.306;8.636;2024-03-06T01:08:36;100666.94;;;6.87;99.46
25944;BME280;13742;49.306;8.636;2024-03-06T01:09:35;100663.39;;;6.86;99.48
25944;BME280;13742;49.306;8.636;2024-03-06T01:10:35;100663.66;;;6.86;99.39
25944;BME280;13742;49.306;8.636;2024-03-06T01:11:35;100661.03;;;6.86;99.34
25944;BME280;13742;49.306;8.636;2024-03-06T01:12:35;100663.73;;;6.85;99.29
25944;BME280;13742;49.306;8.636;2024-03-06T01:13:35;100665.13;;;6.84;99.19
25944;BME280;13742;49.306;8.636;2024-03-06T01:14:35;100662.30;;;6.82;99.17
25944;BME280;13742;49.306;8.636;2024-03-06T01:15:35;100663.99;;;6.82;99.16
25944;BME280;13742;49.306;8.636;2024-03-06T01:16:35;100663.43;;;6.82;99.01
25944;BME280;13742;49.306;8.636;2024-03-06T01:17:35;100664.55;;;6.80;98.97
25944;BME280;13742;49.306;8.636;2024-03-06T01:18:35;100663.96;;;6.80;98.93
25944;BME280;13742;49.306;8.636;2024-03-06T01:19:35;100665.20;;;6.80;99.07
25944;BME280;13742;49.306;8.636;2024-03-06T01:20:36;100664.96;;;6.78;99.00
25944;BME280;13742;49.306;8.636;2024-03-06T01:21:35;100663.99;;;6.77;98.92
25944;BME280;13742;49.306;8.636;2024-03-06T01:22:35;100663.20;;;6.76;98.85
25944;BME280;13742;49.306;8.636;2024-03-06T01:23:35;100665.24;;;6.75;98.82
25944;BME280;13742;49.306;8.636;2024-03-06T01:24:35;100666.20;;;6.74;98.81
25944;BME280;13742;49.306;8.636;2024-03-06T01:25:35;100660.27;;;6.72;98.70
25944;BME280;13742;49.306;8.636;2024-03-06T01:26:35;100662.55;;;6.69;98.55
25944;BME280;13742;49.306;8.636;2024-03-06T01:27:35;100657.80;;;6.64;98.59
25944;BME280;13742;49.306;8.636;2024-03-06T01:28:36;100661.41;;;6.61;98.75
25944;BME280;13742;49.306;8.636;2024-03-06T01:29:35;100661.25;;;6.59;98.83
25944;BME280;13742;49.306;8.636;2024-03-06T01:30:35;100665.47;;;6.59;98.78
25944;BME280;13742;49.306;8.636;2024-03-06T01:31:35;100664.91;;;6.56;98.87
25944;BME280;13742;49.306;8.636;2024-03-06T01:32:35;100661.78;;;6.56;98.87
25944;BME280;13742;49.306;8.636;2024-03-06T01:33:35;100662.62;;;6.55;98.80
25944;BME280;13742;49.306;8.636;2024-03-06T01:34:35;100662.53;;;6.53;98.47
25944;BME280;13742;49.306;8.636;2024-03-06T01:35:35;100665.50;;;6.52;98.54
25944;BME280;13742;49.306;8.636;2024-03-06T01:36:35;100666.44;;;6.51;98.72
25944;BME280;13742;49.306;8.636;2024-03-06T01:37:35;100664.17;;;6.50;98.82
25944;BME280;13742;49.306;8.636;2024-03-06T01:38:35;100663.56;;;6.49;98.82
25944;BME280;13742;49.306;8.636;2024-03-06T01:39:36;100660.94;;;6.48;98.75
25944;BME280;13742;49.306;8.636;2024-03-06T01:40:35;100664.61;;;6.47;98.73
25944;BME280;13742;49.306;8.636;2024-03-06T01:41:35;100661.79;;;6.46;98.84
25944;BME280;13742;49.306;8.636;2024-03-06T01:42:35;100661.31;;;6.46;98.80
25944;BME280;13742;49.306;8.636;2024-03-06T01:43:37;100660.52;;;6.45;98.87
25944;BME280;13742;49.306;8.636;2024-03-06T01:44:35;100658.69;;;6.44;98.88
25944;BME280;13742;49.306;8.636;2024-03-06T01:45:35;100654.50;;;6.42;98.63
25944;BME280;13742;49.306;8.636;2024-03-06T01:46:35;100654.98;;;6.40;98.48
25944;BME280;13742;49.306;8.636;2024-03-06T01:47:35;100655.98;;;6.37;98.52
25944;BME280;13742;49.306;8.636;2024-03-06T01:48:35;100654.52;;;6.37;98.80
25944;BME280;13742;49.306;8.636;2024-03-06T01:49:35;100654.56;;;6.36;98.83
25944;BME280;13742;49.306;8.636;2024-03-06T01:50:35;100661.14;;;6.37;98.88
25944;BME280;13742;49.306;8.636;2024-03-06T01:51:35;100659.89;;;6.36;98.88
25944;BME280;13742;49.306;8.636;2024-03-06T01:52:35;100666.05;;;6.36;98.76
25944;BME280;13742;49.306;8.636;2024-03-06T01:53:35;100665.45;;;6.37;98.91
25944;BME280;13742;49.306;8.636;2024-03-06T01:54:35;100669.25;;;6.36;99.00
25944;BME280;13742;49.306;8.636;2024-03-06T01:55:36;100667.94;;;6.36;98.95
25944;BME280;13742;49.306;8.636;2024-03-06T01:56:35;100669.23;;;6.37;99.10
25944;BME280;13742;49.306;8.636;2024-03-06T01:57:37;100672.53;;;6.38;99.17
25944;BME280;13742;49.306;8.636;2024-03-06T01:58:35;100673.12;;;6.39;99.26
25944;BME280;13742;49.306;8.636;2024-03-06T01:59:35;100670.89;;;6.40;99.25
25944;BME280;13742;49.306;8.636;2024-03-06T02:00:35;100669.41;;;6.40;99.28
25944;BME280;13742;49.306;8.636;2024-03-06T02:01:35;100672.63;;;6.39;99.15
25944;BME280;13742;49.306;8.636;2024-03-06T02:02:35;100673.09;;;6.39;98.98
25944;BME280;13742;49.306;8.636;2024-03-06T02:03:35;100673.73;;;6.39;98.97
25944;BME280;13742;49.306;8.636;2024-03-06T02:04:35;100673.67;;;6.38;98.86
25944;BME280;13742;49.306;8.636;2024-03-06T02:05:35;100673.19;;;6.38;98.90
25944;BME280;13742;49.306;8.636;2024-03-06T02:06:35;100672.69;;;6.38;98.93
25944;BME280;13742;49.306;8.636;2024-03-06T02:07:36;100675.66;;;6.39;99.02
25944;BME280;13742;49.306;8.636;2024-03-06T02:08:35;100672.77;;;6.38;99.10
25944;BME280;13742;49.306;8.636;2024-03-06T02:09:35;100670.59;;;6.37;99.12
25944;BME280;13742;49.306;8.636;2024-03-06T02:10:36;100672.52;;;6.37;99.08
25944;BME280;13742;49.306;8.636;2024-03-06T02:11:38;100670.31;;;6.36;99.08
25944;BME280;13742;49.306;8.636;2024-03-06T02:12:36;100671.28;;;6.35;99.11
25944;BME280;13742;49.306;8.636;2024-03-06T02:13:35;100669.20;;;6.34;99.05
25944;BME280;13742;49.306;8.636;2024-03-06T02:14:35;100669.59;;;6.33;99.05
25944;BME280;13742;49.306;8.636;2024-03-06T02:15:35;100670.73;;;6.32;99.09
25944;BME280;13742;49.306;8.636;2024-03-06T02:16:36;100669.83;;;6.32;99.07
25944;BME280;13742;49.306;8.636;2024-03-06T02:17:35;100668.92;;;6.32;99.22
25944;BME280;13742;49.306;8.636;2024-03-06T02:18:36;100669.34;;;6.32;99.36
25944;BME280;13742;49.306;8.636;2024-03-06T02:19:38;100667.45;;;6.32;99.39
25944;BME280;13742;49.306;8.636;2024-03-06T02:20:37;100668.22;;;6.33;99.38
25944;BME280;13742;49.306;8.636;2024-03-06T02:21:35;100668.73;;;6.32;99.32
25944;BME280;13742;49.306;8.636;2024-03-06T02:22:35;100669.91;;;6.32;99.27
25944;BME280;13742;49.306;8.636;2024-03-06T02:23:35;100671.23;;;6.33;99.27
25944;BME280;13742;49.306;8.636;2024-03-06T02:24:36;100668.89;;;6.32;99.12
25944;BME280;13742;49.306;8.636;2024-03-06T02:25:35;100673.75;;;6.31;99.07
25944;BME280;13742;49.306;8.636;2024-03-06T02:26:35;100675.16;;;6.32;98.93
25944;BME280;13742;49.306;8.636;2024-03-06T02:27:35;100677.30;;;6.32;98.94
25944;BME280;13742;49.306;8.636;2024-03-06T02:28:35;100676.72;;;6.32;98.98
25944;BME280;13742;49.306;8.636;2024-03-06T02:29:35;100676.54;;;6.33;98.98
25944;BME280;13742;49.306;8.636;2024-03-06T02:30:36;100678.23;;;6.33;98.98
25944;BME280;13742;49.306;8.636;2024-03-06T02:31:35;100679.85;;;6.33;98.97
25944;BME280;13742;49.306;8.636;2024-03-06T02:32:35;100681.59;;;6.34;98.97
25944;BME280;13742;49.306;8.636;2024-03-06T02:33:35;100680.19;;;6.35;99.06
25944;BME280;13742;49.306;8.636;2024-03-06T02:34:35;100678.38;;;6.35;99.01
25944;BME280;13742;49.306;8.636;2024-03-06T02:35:36;100680.23;;;6.35;98.96
25944;BME280;13742;49.306;8.636;2024-03-06T02:36:36;100676.24;;;6.33;98.90
25944;BME280;13742;49.306;8.636;2024-03-06T02:37:35;100674.52;;;6.32;98.99
25944;BME280;13742;49.306;8.636;2024-03-06T02:38:36;100678.53;;;6.30;98.74
25944;BME280;13742;49.306;8.636;2024-03-06T02:39:35;100676.14;;;6.29;98.95
25944;BME280;13742;49.306;8.636;2024-03-06T02:40:35;100676.05;;;6.27;99.19
25944;BME280;13742;49.306;8.636;2024-03-06T02:41:36;100676.41;;;6.28;99.24
25944;BME280;13742;49.306;8.636;2024-03-06T02:42:35;100677.74;;;6.28;99.33
25944;BME280;13742;49.306;8.636;2024-03-06T02:43:35;100674.09;;;6.27;99.36
25944;BME280;13742;49.306;8.636;2024-03-06T02:44:35;100672.61;;;6.27;99.41
25944;BME280;13742;49.306;8.636;2024-03-06T02:45:35;100674.19;;;6.27;99.47
25944;BME280;13742;49.306;8.636;2024-03-06T02:46:35;100669.39;;;6.26;99.42
25944;BME280;13742;49.306;8.636;2024-03-06T02:47:35;100671.38;;;6.25;99.37
25944;BME280;13742;49.306;8.636;2024-03-06T02:48:35;100669.61;;;6.26;99.34
25944;BME280;13742;49.306;8.636;2024-03-06T02:49:35;100671.41;;;6.26;99.33
25944;BME280;13742;49.306;8.636;2024-03-06T02:50:35;100673.82;;;6.26;99.33
25944;BME280;13742;49.306;8.636;2024-03-06T02:51:35;100675.13;;;6.26;99.24
25944;BME280;13742;49.306;8.636;2024-03-06T02:52:35;100676.16;;;6.26;99.35
25944;BME280;13742;49.306;8.636;2024-03-06T02:53:35;100676.38;;;6.26;99.35
25944;BME280;13742;49.306;8.636;2024-03-06T02:54:35;100676.45;;;6.26;99.29
25944;BME280;13742;49.306;8.636;2024-03-06T02:55:35;100678.27;;;6.25;99.21
25944;BME280;13742;49.306;8.636;2024-03-06T02:56:35;100678.52;;;6.25;99.25
25944;BME280;13742;49.306;8.636;2024-03-06T02:57:35;100677.75;;;6.25;99.20
25944;BME280;13742;49.306;8.636;2024-03-06T02:58:35;100677.05;;;6.25;99.22
25944;BME280;13742;49.306;8.636;2024-03-06T02:59:35;100676.52;;;6.24;99.16
25944;BME280;13742;49.306;8.636;2024-03-06T03:00:35;100676.52;;;6.24;99.21
25944;BME280;13742;49.306;8.636;2024-03-06T03:01:35;100676.69;;;6.24;99.20
25944;BME280;13742;49.306;8.636;2024-03-06T03:02:35;100678.49;;;6.24;99.22
25944;BME280;13742;49.306;8.636;2024-03-06T03:03:36;100675.87;;;6.24;99.24
25944;BME280;13742;49.306;8.636;2024-03-06T03:04:35;100674.61;;;6.22;99.09
25944;BME280;13742;49.306;8.636;2024-03-06T03:05:35;100675.91;;;6.21;98.94
25944;BME280;13742;49.306;8.636;2024-03-06T03:06:35;100673.39;;;6.20;98.78
25944;BME280;13742;49.306;8.636;2024-03-06T03:07:35;100675.97;;;6.20;98.86
25944;BME280;13742;49.306;8.636;2024-03-06T03:08:36;100673.19;;;6.20;98.95
25944;BME280;13742;49.306;8.636;2024-03-06T03:09:36;100674.33;;;6.20;99.04
25944;BME280;13742;49.306;8.636;2024-03-06T03:10:35;100677.45;;;6.18;98.81
25944;BME280;13742;49.306;8.636;2024-03-06T03:11:35;100675.77;;;6.18;98.71
25944;BME280;13742;49.306;8.636;2024-03-06T03:12:35;100673.25;;;6.17;98.76
25944;BME280;13742;49.306;8.636;2024-03-06T03:13:35;100673.58;;;6.19;98.87
25944;BME280;13742;49.306;8.636;2024-03-06T03:14:35;100671.05;;;6.18;99.11
25944;BME280;13742;49.306;8.636;2024-03-06T03:15:35;100675.41;;;6.20;99.28
25944;BME280;13742;49.306;8.636;2024-03-06T03:16:35;100672.09;;;6.19;99.20
25944;BME280;13742;49.306;8.636;2024-03-06T03:17:35;100672.58;;;6.19;99.20
25944;BME280;13742;49.306;8.636;2024-03-06T03:18:35;100675.70;;;6.19;99.05
25944;BME280;13742;49.306;8.636;2024-03-06T03:19:35;100677.02;;;6.19;99.00
25944;BME280;13742;49.306;8.636;2024-03-06T03:20:36;100680.23;;;6.20;98.92
25944;BME280;13742;49.306;8.636;2024-03-06T03:21:35;100678.86;;;6.19;98.98
25944;BME280;13742;49.306;8.636;2024-03-06T03:22:36;100684.16;;;6.20;98.93
25944;BME280;13742;49.306;8.636;2024-03-06T03:23:35;100685.63;;;6.20;98.96
25944;BME280;13742;49.306;8.636;2024-03-06T03:24:36;100684.26;;;6.21;98.99
25944;BME280;13742;49.306;8.636;2024-03-06T03:25:36;100682.99;;;6.21;99.08
25944;BME280;13742;49.306;8.636;2024-03-06T03:26:36;100682.48;;;6.22;99.10
25944;BME280;13742;49.306;8.636;2024-03-06T03:27:38;100683.47;;;6.23;99.27
25944;BME280;13742;49.306;8.636;2024-03-06T03:28:36;100681.98;;;6.24;99.38
25944;BME280;13742;49.306;8.636;2024-03-06T03:29:35;100683.55;;;6.24;99.33
25944;BME280;13742;49.306;8.636;2024-03-06T03:30:35;100685.14;;;6.24;99.43
25944;BME280;13742;49.306;8.636;2024-03-06T03:31:37;100685.50;;;6.22;99.34
25944;BME280;13742;49.306;8.636;2024-03-06T03:32:35;100687.47;;;6.21;99.38
25944;BME280;13742;49.306;8.636;2024-03-06T03:33:40;100687.94;;;6.20;99.40
25944;BME280;13742;49.306;8.636;2024-03-06T03:34:35;100687.89;;;6.18;99.38
25944;BME280;13742;49.306;8.636;2024-03-06T03:35:35;100692.05;;;6.17;99.15
25944;BME280;13742;49.306;8.636;2024-03-06T03:36:39;100692.88;;;6.17;99.08
25944;BME280;13742;49.306;8.636;2024-03-06T03:37:35;100695.83;;;6.17;99.16
25944;BME280;13742;49.306;8.636;2024-03-06T03:38:38;100695.70;;;6.17;99.06
25944;BME280;13742;49.306;8.636;2024-03-06T03:39:35;100695.61;;;6.16;98.99
25944;BME280;13742;49.306;8.636;2024-03-06T03:40:35;100697.03;;;6.16;99.02
25944;BME280;13742;49.306;8.636;2024-03-06T03:41:35;100695.67;;;6.17;99.16
25944;BME280;13742;49.306;8.636;2024-03-06T03:42:35;100693.69;;;6.16;99.17
25944;BME280;13742;49.306;8.636;2024-03-06T03:43:35;100695.77;;;6.16;99.18
25944;BME280;13742;49.306;8.636;2024-03-06T03:44:35;100694.25;;;6.16;99.28
25944;BME280;13742;49.306;8.636;2024-03-06T03:45:35;100689.53;;;6.17;99.46
25944;BME280;13742;49.306;8.636;2024-03-06T03:46:35;100692.27;;;6.19;99.76
25944;BME280;13742;49.306;8.636;2024-03-06T03:47:35;100691.94;;;6.19;99.82
25944;BME280;13742;49.306;8.636;2024-03-06T03:48:36;100691.36;;;6.19;100.00
25944;BME280;13742;49.306;8.636;2024-03-06T03:49:36;100693.61;;;6.19;99.91
25944;BME280;13742;49.306;8.636;2024-03-06T03:50:35;100693.09;;;6.19;99.62
25944;BME280;13742;49.306;8.636;2024-03-06T03:51:35;100694.45;;;6.18;99.49
25944;BME280;13742;49.306;8.636;2024-03-06T03:52:35;100695.16;;;6.18;99.55
25944;BME280;13742;49.306;8.636;2024-03-06T03:53:35;100696.80;;;6.18;99.61
25944;BME280;13742;49.306;8.636;2024-03-06T03:54:35;100697.12;;;6.18;99.58
25944;BME280;13742;49.306;8.636;2024-03-06T03:55:35;100695.48;;;6.18;99.60
25944;BME280;13742;49.306;8.636;2024-03-06T03:56:35;100699.35;;;6.19;99.80
25944;BME280;13742;49.306;8.636;2024-03-06T03:57:35;100700.95;;;6.19;99.85
25944;BME280;13742;49.306;8.636;2024-03-06T03:58:35;100702.86;;;6.20;100.00
25944;BME280;13742;49.306;8.636;2024-03-06T03:59:37;100699.08;;;6.19;99.89
25944;BME280;13742;49.306;8.636;2024-03-06T04:00:35;100703.78;;;6.19;99.92
25944;BME280;13742;49.306;8.636;2024-03-06T04:01:35;100703.41;;;6.19;100.00
25944;BME280;13742;49.306;8.636;2024-03-06T04:02:35;100703.84;;;6.20;100.00
25944;BME280;13742;49.306;8.636;2024-03-06T04:03:36;100702.92;;;6.19;99.89
25944;BME280;13742;49.306;8.636;2024-03-06T04:04:35;100701.66;;;6.18;99.83
25944;BME280;13742;49.306;8.636;2024-03-06T04:05:35;100702.30;;;6.19;99.81
25944;BME280;13742;49.306;8.636;2024-03-06T04:06:35;100702.02;;;6.19;99.73
25944;BME280;13742;49.306;8.636;2024-03-06T04:07:35;100705.59;;;6.18;99.67
25944;BME280;13742;49.306;8.636;2024-03-06T04:08:35;100704.47;;;6.18;99.56
25944;BME280;13742;49.306;8.636;2024-03-06T04:09:36;100710.73;;;6.17;99.53
25944;BME280;13742;49.306;8.636;2024-03-06T04:10:35;100709.20;;;6.17;99.51
25944;BME280;13742;49.306;8.636;2024-03-06T04:11:37;100710.63;;;6.17;99.56
25944;BME280;13742;49.306;8.636;2024-03-06T04:12:35;100714.19;;;6.17;99.62
25944;BME280;13742;49.306;8.636;2024-03-06T04:13:36;100713.36;;;6.17;99.89
25944;BME280;13742;49.306;8.636;2024-03-06T04:14:35;100714.69;;;6.17;100.00
25944;BME280;13742;49.306;8.636;2024-03-06T04:15:35;100714.36;;;6.15;100.00
25944;BME280;13742;49.306;8.636;2024-03-06T04:16:35;100712.69;;;6.15;100.00
25944;BME280;13742;49.306;8.636;2024-03-06T04:17:36;100715.69;;;6.14;100.00
25944;BME280;13742;49.306;8.636;2024-03-06T04:18:35;100713.13;;;6.13;100.00
25944;BME280;13742;49.306;8.636;2024-03-06T04:19:35;100711.28;;;6.11;100.00
25944;BME280;13742;49.306;8.636;2024-03-06T04:20:35;100717.89;;;6.11;100.00
25944;BME280;13742;49.306;8.636;2024-03-06T04:21:40;100721.09;;;6.11;100.00
25944;BME280;13742;49.306;8.636;2024-03-06T04:22:35;100717.27;;;6.09;100.00
25944;BME280;13742;49.306;8.636;2024-03-06T04:23:35;100719.02;;;6.08;100.00
25944;BME280;13742;49.306;8.636;2024-03-06T04:24:35;100718.63;;;6.09;100.00
25944;BME280;13742;49.306;8.636;2024-03-06T04:25:35;100720.14;;;6.09;100.00
25944;BME280;13742;49.306;8.636;2024-03-06T04:26:35;100719.13;;;6.09;100.00
25944;BME280;13742;49.306;8.636;2024-03-06T04:27:35;100719.01;;;6.08;100.00
25944;BME280;13742;49.306;8.636;2024-03-06T04:28:35;100723.28;;;6.10;100.00
25944;BME280;13742;49.306;8.636;2024-03-06T04:29:35;100722.33;;;6.10;100.00
25944;BME280;13742;49.306;8.636;2024-03-06T04:30:35;100723.85;;;6.10;100.00
25944;BME280;13742;49.306;8.636;2024-03-06T04:31:35;100720.64;;;6.11;100.00
25944;BME280;13742;49.306;8.636;2024-03-06T04:32:35;100724.53;;;6.11;100.00
25944;BME280;13742;49.306;8.636;2024-03-06T04:33:35;100724.53;;;6.11;100.00
25944;BME280;13742;49.306;8.636;2024-03-06T04:34:35;100725.66;;;6.10;100.00
25944;BME280;13742;49.306;8.636;2024-03-06T04:35:35;100729.28;;;6.11;100.00
25944;BME280;13742;49.306;8.636;2024-03-06T04:36:35;100729.97;;;6.11;100.00
25944;BME280;13742;49.306;8.636;2024-03-06T04:37:35;100734.19;;;6.12;100.00
25944;BME280;13742;49.306;8.636;2024-03-06T04:38:35;100733.69;;;6.12;100.00
25944;BME280;13742;49.306;8.636;2024-03-06T04:39:35;100735.92;;;6.13;100.00
25944;BME280;13742;49.306;8.636;2024-03-06T04:40:35;100734.48;;;6.13;100.00
25944;BME280;13742;49.306;8.636;2024-03-06T04:41:35;100740.80;;;6.13;100.00
25944;BME280;13742;49.306;8.636;2024-03-06T04:42:38;100737.72;;;6.13;100.00
25944;BME280;13742;49.306;8.636;2024-03-06T04:43:35;100741.86;;;6.13;100.00
25944;BME280;13742;49.306;8.636;2024-03-06T04:44:35;100739.91;;;6.12;100.00
25944;BME280;13742;49.306;8.636;2024-03-06T04:45:35;100741.01;;;6.13;100.00
25944;BME280;13742;49.306;8.636;2024-03-06T04:46:35;100741.50;;;6.13;100.00
25944;BME280;13742;49.306;8.636;2024-03-06T04:47:35;100743.63;;;6.13;100.00
25944;BME280;13742;49.306;8.636;2024-03-06T04:48:35;100748.39;;;6.13;100.00
25944;BME280;13742;49.306;8.636;2024-03-06T04:49:35;100741.05;;;6.12;100.00
25944;BME280;13742;49.306;8.636;2024-03-06T04:50:35;100741.05;;;6.15;100.00
25944;BME280;13742;49.306;8.636;2024-03-06T04:51:35;100748.73;;;6.15;100.00
25944;BME280;13742;49.306;8.636;2024-03-06T04:52:35;100741.73;;;6.15;100.00
25944;BME280;13742;49.306;8.636;2024-03-06T04:53:35;100741.20;;;6.15;100.00
25944;BME280;13742;49.306;8.636;2024-03-06T04:54:35;100742.93;;;6.15;100.00
25944;BME280;13742;49.306;8.636;2024-03-06T04:55:37;100748.97;;;6.14;100.00
25944;BME280;13742;49.306;8.636;2024-03-06T04:56:35;100744.38;;;6.14;100.00
25944;BME280;13742;49.306;8.636;2024-03-06T04:57:36;100749.56;;;6.13;100.00
25944;BME280;13742;49.306;8.636;2024-03-06T04:58:35;100752.42;;;6.14;100.00
25944;BME280;13742;49.306;8.636;2024-03-06T04:59:35;100750.34;;;6.13;100.00
25944;BME280;13742;49.306;8.636;2024-03-06T05:00:35;100753.41;;;6.14;100.00
25944;BME280;13742;49.306;8.636;2024-03-06T05:01:35;100755.69;;;6.14;100.00
25944;BME280;13742;49.306;8.636;2024-03-06T05:02:36;100757.38;;;6.14;100.00
25944;BME280;13742;49.306;8.636;2024-03-06T05:04:05;100756.69;;;6.14;100.00
25944;BME280;13742;49.306;8.636;2024-03-06T05:05:05;100758.03;;;6.14;100.00
25944;BME280;13742;49.306;8.636;2024-03-06T05:06:11;100754.98;;;6.15;100.00
25944;BME280;13742;49.306;8.636;2024-03-06T05:07:09;100758.57;;;6.14;100.00
25944;BME280;13742;49.306;8.636;2024-03-06T05:08:10;100760.93;;;6.14;100.00
25944;BME280;13742;49.306;8.636;2024-03-06T05:09:06;100757.42;;;6.14;100.00
25944;BME280;13742;49.306;8.636;2024-03-06T05:10:07;100760.50;;;6.13;100.00
25944;BME280;13742;49.306;8.636;2024-03-06T05:11:10;100760.00;;;6.14;100.00
25944;BME280;13742;49.306;8.636;2024-03-06T05:12:10;100762.50;;;6.14;100.00
25944;BME280;13742;49.306;8.636;2024-03-06T05:13:10;100764.33;;;6.15;100.00
25944;BME280;13742;49.306;8.636;2024-03-06T05:14:05;100764.39;;;6.14;100.00
25944;BME280;13742;49.306;8.636;2024-03-06T05:15:05;100766.18;;;6.14;100.00
25944;BME280;13742;49.306;8.636;2024-03-06T05:16:10;100771.09;;;6.14;100.00
25944;BME280;13742;49.306;8.636;2024-03-06T05:17:10;100770.77;;;6.14;100.00